Fisherville, Tennessee
Current Conditions -  °F | °C
As of 1:15 AM on Thursday 18 Dec 2014 (Local Time) from KOLV Reporting Station
Overcast Overcast  
Wind Chill: 30°   Ceiling: 8500
Heat Index: 36°   Visibility: 7mi
Dew Point: 36°   Wind: 7mph
Humidity: 100%   Direction: 10°N
Pressure: 30.28"   Gusts: NA
Location:  35.0418°N, 89.6647°W
Report Text: KOLV 180715Z AUTO 01006KT 7SM OVC085 02/02 A3028 RMK A01 P000
Loading
Personal Weather Stations






























Interactive Weather Map New forecast layout! Learn more

10-Day Weather Forecast

Advertisements
Track Severe Weather on mobile